Time;durP1;ratioP1;P1;durP2;ratioP2;P2;SDS_P1;SDS_P2;PMS_P1;PMS_P2;Temp;Humidity;BMP_temperature;BMP_pressure;BME280_temperature;BME280_humidity;BME280_pressure;Samples;Min_cycle;Max_cycle;Signal;HPM_P1;HPM_P2
2020/12/20 00:00:09;;;;;;;;;;;;;;;18.07;62.47;102298.56;4993880;28;1050;-52
2020/12/20 00:02:34;;;;;;;;;;;;;;;18.07;62.68;102309.28;4993731;28;1867;-51
2020/12/20 00:04:59;;;;;;;;;;;;;;;18.08;62.80;102316.38;4994063;28;947;-52
2020/12/20 00:07:25;;;;;;;;;;;;;;;18.05;62.93;102311.19;4994020;28;810;-52
2020/12/20 00:09:50;;;;;;;;;;;;;;;18.05;62.58;102308.50;4993516;28;1689;-51
2020/12/20 00:12:15;;;;;;;;;;;;;;;18.06;62.41;102320.06;4994220;28;881;-52
2020/12/20 00:14:40;;;;;;;;;;;;;;;18.06;62.38;102317.38;4993794;28;854;-51
2020/12/20 00:17:07;;;;;;;;;;;;;;;18.07;62.26;102327.16;4993930;28;1898;-52
2020/12/20 00:19:32;;;;;;;;;;;;;;;18.02;62.22;102318.53;4997247;28;858;-52
2020/12/20 00:21:59;;;;;;;;;;;;;;;18.04;62.63;102321.97;4997642;28;1771;-53
2020/12/20 00:24:24;;;;;;;;;;;;;;;18.05;62.79;102323.72;4997786;28;798;-51
2020/12/20 00:26:50;;;;;;;;;;;;;;;18.04;61.95;102332.69;4997432;28;900;-51
2020/12/20 00:29:15;;;;;;;;;;;;;;;18.05;61.90;102334.41;4997201;28;1964;-51
2020/12/20 00:31:40;;;;;;;;;;;;;;;18.03;61.62;102320.25;4997253;28;1720;-51
2020/12/20 00:34:06;;;;;;;;;;;;;;;18.03;61.92;102330.97;4997411;28;1645;-51
2020/12/20 00:36:31;;;;;;;;;;;;;;;18.03;61.89;102320.25;4997196;28;1910;-51
2020/12/20 00:38:57;;;;;;;;;;;;;;;18.02;62.19;102330.09;4997219;28;906;-51
2020/12/20 00:41:22;;;;;;;;;;;;;;;18.02;62.12;102324.72;4997362;28;813;-51
2020/12/20 00:43:47;;;;;;;;;;;;;;;18.02;61.77;102323.88;4996949;28;1806;-51
2020/12/20 00:46:12;;;;;;;;;;;;;;;18.01;62.02;102322.16;4997117;28;1642;-51
2020/12/20 00:48:37;;;;;;;;;;;;;;;18.01;61.70;102311.47;4998046;28;1394;-52
2020/12/20 00:51:05;;;;;;;;;;;;;;;18.03;62.14;102315.75;5013976;28;1407;-51
2020/12/20 00:53:30;;;;;;;;;;;;;;;18.02;61.21;102323.88;5016900;28;874;-51
2020/12/20 00:55:55;;;;;;;;;;;;;;;17.99;62.18;102308.88;5016506;28;1890;-52
2020/12/20 00:58:21;;;;;;;;;;;;;;;18.02;61.25;102311.34;4997124;28;1763;-52
2020/12/20 01:00:46;;;;;;;;;;;;;;;18.00;62.14;102304.38;4996013;28;1354;-52
2020/12/20 01:03:11;;;;;;;;;;;;;;;18.00;62.24;102305.22;5027911;28;1181;-51
2020/12/20 01:05:39;;;;;;;;;;;;;;;17.99;61.37;102318.72;4997028;28;842;-51
2020/12/20 01:08:04;;;;;;;;;;;;;;;17.96;61.81;102302.84;4996804;28;990;-51
2020/12/20 01:10:29;;;;;;;;;;;;;;;17.98;61.05;102319.66;4996647;28;983;-51
2020/12/20 01:12:55;;;;;;;;;;;;;;;17.98;61.45;102308.97;4996490;28;1879;-51
2020/12/20 01:15:21;;;;;;;;;;;;;;;17.95;60.84;102304.66;4996442;28;1949;-51
2020/12/20 01:17:46;;;;;;;;;;;;;;;17.94;61.13;102296.72;4996527;28;995;-51
2020/12/20 01:20:12;;;;;;;;;;;;;;;17.95;60.76;102296.63;4996438;28;1782;-51
2020/12/20 01:22:39;;;;;;;;;;;;;;;17.94;60.34;102299.38;4996846;28;893;-51
2020/12/20 01:25:05;;;;;;;;;;;;;;;17.96;60.45;102302.84;4996242;28;1705;-51
2020/12/20 01:27:30;;;;;;;;;;;;;;;18.00;60.88;102299.88;4996413;28;891;-51
2020/12/20 01:29:55;;;;;;;;;;;;;;;17.99;60.53;102306.19;4996315;28;775;-51
2020/12/20 01:32:21;;;;;;;;;;;;;;;17.96;60.93;102301.00;4995976;28;1736;-51
2020/12/20 01:34:46;;;;;;;;;;;;;;;17.97;60.48;102305.44;4996338;28;905;-51
2020/12/20 01:37:11;;;;;;;;;;;;;;;17.94;61.06;102294.88;4996024;28;2057;-51
2020/12/20 01:39:36;;;;;;;;;;;;;;;17.95;61.08;102301.13;4995414;28;1902;-51
2020/12/20 01:42:02;;;;;;;;;;;;;;;17.93;60.17;102297.69;4996377;28;1956;-51
2020/12/20 01:44:27;;;;;;;;;;;;;;;17.92;59.90;102295.94;4996183;28;782;-51
2020/12/20 01:46:54;;;;;;;;;;;;;;;17.92;60.23;102291.44;4996167;28;1872;-52
2020/12/20 01:49:19;;;;;;;;;;;;;;;17.93;60.06;102297.69;4996043;28;849;-51
2020/12/20 01:51:46;;;;;;;;;;;;;;;17.92;60.34;102301.28;4995720;28;924;-51
2020/12/20 01:54:11;;;;;;;;;;;;;;;17.91;60.56;102286.19;4995443;28;1649;-51
2020/12/20 01:56:37;;;;;;;;;;;;;;;17.92;60.30;102295.94;4995819;28;1890;-51
2020/12/20 01:59:02;;;;;;;;;;;;;;;17.91;60.05;102291.56;4995142;28;1051;-51
2020/12/20 02:01:27;;;;;;;;;;;;;;;17.89;60.49;102286.28;4995003;28;1679;-51
2020/12/20 02:03:52;;;;;;;;;;;;;;;17.88;60.16;102290.75;4995738;28;878;-51
2020/12/20 02:06:18;;;;;;;;;;;;;;;17.91;60.33;102288.88;4993948;28;882;-51
2020/12/20 02:08:43;;;;;;;;;;;;;;;17.88;60.17;102290.75;4995173;28;1955;-51
2020/12/20 02:11:12;;;;;;;;;;;;;;;17.89;59.69;102292.50;4995524;28;849;-51
2020/12/20 02:13:41;;;;;;;;;;;;;;;17.87;59.79;102289.06;4995665;28;802;-51
2020/12/20 02:16:07;;;;;;;;;;;;;;;17.86;59.87;102298.00;4994840;28;1961;-51
2020/12/20 02:18:32;;;;;;;;;;;;;;;17.86;59.88;102286.47;4994703;28;1042;-51
2020/12/20 02:20:57;;;;;;;;;;;;;;;17.84;60.21;102289.22;4995608;28;1956;-51
2020/12/20 02:23:22;;;;;;;;;;;;;;;17.87;60.57;102288.19;4994947;28;1896;-51
2020/12/20 02:25:51;;;;;;;;;;;;;;;17.87;59.65;102283.69;4995106;28;900;-51
2020/12/20 02:28:16;;;;;;;;;;;;;;;17.88;59.65;102295.25;4995636;28;1577;-51
2020/12/20 02:30:41;;;;;;;;;;;;;;;17.84;60.09;102294.56;4995041;28;1233;-51
2020/12/20 02:33:07;;;;;;;;;;;;;;;17.84;59.66;102281.19;4994807;28;999;-51
2020/12/20 02:35:32;;;;;;;;;;;;;;;17.84;59.76;102281.19;4994624;28;1910;-51
2020/12/20 02:37:57;;;;;;;;;;;;;;;17.84;60.01;102285.69;4994952;28;1886;-52
2020/12/20 02:40:22;;;;;;;;;;;;;;;17.88;60.28;102295.25;4994802;28;932;-51
2020/12/20 02:42:47;;;;;;;;;;;;;;;17.81;59.56;102267.13;4994952;28;952;-51
2020/12/20 02:45:13;;;;;;;;;;;;;;;17.81;60.11;102284.03;4994911;28;865;-51
2020/12/20 02:47:38;;;;;;;;;;;;;;;17.86;60.03;102294.47;4994984;28;881;-51
2020/12/20 02:50:03;;;;;;;;;;;;;;;17.86;59.67;102287.31;4994762;28;889;-51
2020/12/20 02:52:28;;;;;;;;;;;;;;;17.82;59.40;102275.03;5026623;28;897;-52
2020/12/20 02:54:54;;;;;;;;;;;;;;;17.81;59.55;102284.03;4994186;28;1968;-51
2020/12/20 02:57:19;;;;;;;;;;;;;;;17.82;59.95;102280.38;4994300;28;1953;-51
2020/12/20 02:59:44;;;;;;;;;;;;;;;17.80;59.78;102284.13;4994652;28;924;-51
2020/12/20 03:02:09;;;;;;;;;;;;;;;17.84;59.60;102278.50;4993942;28;1422;-51
2020/12/20 03:04:34;;;;;;;;;;;;;;;17.82;59.85;102290.22;4994228;28;1819;-51
2020/12/20 03:07:00;;;;;;;;;;;;;;;17.83;59.09;102279.47;4994494;28;877;-51
2020/12/20 03:09:25;;;;;;;;;;;;;;;17.82;59.25;102274.19;4994309;28;1907;-51
2020/12/20 03:11:50;;;;;;;;;;;;;;;17.83;59.94;102284.84;4994437;28;787;-51
2020/12/20 03:14:15;;;;;;;;;;;;;;;17.80;59.75;102268.91;4994731;28;869;-51
2020/12/20 03:16:41;;;;;;;;;;;;;;;17.82;59.11;102275.03;4994578;28;1965;-51
2020/12/20 03:19:06;;;;;;;;;;;;;;;17.80;59.36;102276.94;4994166;28;876;-51
2020/12/20 03:21:31;;;;;;;;;;;;;;;17.82;59.04;102288.41;4994633;28;818;-51
2020/12/20 03:24:00;;;;;;;;;;;;;;;17.80;59.63;102287.66;4994593;28;1866;-51
2020/12/20 03:26:27;;;;;;;;;;;;;;;17.80;59.21;102287.66;4994621;28;806;-51
2020/12/20 03:28:53;;;;;;;;;;;;;;;17.80;59.10;102286.78;5026100;28;1237;-51
2020/12/20 03:31:20;;;;;;;;;;;;;;;17.77;59.04;102285.16;4994237;28;864;-51
2020/12/20 03:33:46;;;;;;;;;;;;;;;17.77;58.39;102279.81;4994311;28;1900;-51
2020/12/20 03:36:11;;;;;;;;;;;;;;;17.76;58.54;102274.53;4993817;28;1918;-51
2020/12/20 03:38:37;;;;;;;;;;;;;;;17.76;59.40;102271.88;4994407;28;819;-51
2020/12/20 03:41:03;;;;;;;;;;;;;;;17.69;60.42;102277.59;4994005;28;1040;-51
2020/12/20 03:43:29;;;;;;;;;;;;;;;17.48;62.52;102285.03;4994441;28;1801;-51
2020/12/20 03:45:55;;;;;;;;;;;;;;;17.34;62.96;102282.28;4994347;28;814;-50
2020/12/20 03:48:20;;;;;;;;;;;;;;;17.29;63.33;102277.22;4994107;28;810;-51
2020/12/20 03:50:45;;;;;;;;;;;;;;;17.24;62.46;102284.63;4994023;28;1745;-51
2020/12/20 03:53:11;;;;;;;;;;;;;;;17.24;62.79;102283.78;4996855;28;998;-51
2020/12/20 03:55:37;;;;;;;;;;;;;;;17.21;63.87;102283.94;4997994;28;1902;-51
2020/12/20 03:58:03;;;;;;;;;;;;;;;17.19;64.30;102293.84;4997993;28;864;-51
2020/12/20 04:00:29;;;;;;;;;;;;;;;17.18;64.45;102292.13;4997803;28;1846;-51
2020/12/20 04:02:55;;;;;;;;;;;;;;;17.18;64.17;102287.66;4998758;28;1700;-52
2020/12/20 04:05:20;;;;;;;;;;;;;;;17.27;63.99;102296.97;4997643;28;1814;-50
2020/12/20 04:07:46;;;;;;;;;;;;;;;17.21;64.65;102289.28;4997977;28;857;-51
2020/12/20 04:10:11;;;;;;;;;;;;;;;17.22;64.60;102302.56;4997481;28;1748;-51
2020/12/20 04:12:36;;;;;;;;;;;;;;;17.25;64.98;102290.84;4997740;28;1637;-51
2020/12/20 04:15:03;;;;;;;;;;;;;;;17.18;65.27;102278.78;5003019;28;1894;-51
2020/12/20 04:17:28;;;;;;;;;;;;;;;17.18;65.79;102289.47;5008384;28;1890;-50
2020/12/20 04:19:53;;;;;;;;;;;;;;;17.15;65.16;102297.66;5006110;28;1578;-51
2020/12/20 04:22:18;;;;;;;;;;;;;;;17.15;66.03;102305.66;5005861;28;1587;-51
2020/12/20 04:24:44;;;;;;;;;;;;;;;17.16;66.03;102299.38;5007196;28;1461;-52
2020/12/20 04:27:09;;;;;;;;;;;;;;;17.13;66.28;102294.19;5005190;28;1787;-51
2020/12/20 04:29:34;;;;;;;;;;;;;;;17.13;64.92;102303.09;5006785;28;1332;-51
2020/12/20 04:32:02;;;;;;;;;;;;;;;17.12;65.81;102305.84;5007103;28;1582;-51
2020/12/20 04:34:27;;;;;;;;;;;;;;;17.12;66.39;102308.53;5001997;28;1571;-51
2020/12/20 04:36:52;;;;;;;;;;;;;;;17.08;65.50;102306.00;5006735;28;1981;-51
2020/12/20 04:39:17;;;;;;;;;;;;;;;17.09;66.03;102313.09;5004892;28;1532;-51
2020/12/20 04:41:43;;;;;;;;;;;;;;;17.06;65.96;102293.69;5007013;28;1588;-51
2020/12/20 04:44:08;;;;;;;;;;;;;;;17.05;66.19;102303.53;5006617;28;1545;-50
2020/12/20 04:46:34;;;;;;;;;;;;;;;17.03;66.22;102302.75;5006794;28;1335;-51
2020/12/20 04:49:00;;;;;;;;;;;;;;;17.03;67.63;102318.78;5004037;28;1503;-51
2020/12/20 04:51:27;;;;;;;;;;;;;;;17.05;67.34;102321.34;5007063;28;1596;-51
2020/12/20 04:53:56;;;;;;;;;;;;;;;17.03;69.36;102321.47;5006152;28;1570;-51
2020/12/20 04:56:22;;;;;;;;;;;;;;;17.02;70.90;102326.88;5006710;28;1941;-51
2020/12/20 04:58:47;;;;;;;;;;;;;;;16.99;69.25;102316.34;5004669;28;1391;-51
2020/12/20 05:01:14;;;;;;;;;;;;;;;17.02;68.72;102322.38;5005473;28;1354;-50
2020/12/20 05:03:39;;;;;;;;;;;;;;;17.01;67.66;102333.16;5006595;28;1375;-51
2020/12/20 05:06:05;;;;;;;;;;;;;;;16.99;67.65;102327.91;4997075;28;918;-51
2020/12/20 05:08:30;;;;;;;;;;;;;;;17.02;67.65;102326.88;4996192;28;1774;-51
2020/12/20 05:10:55;;;;;;;;;;;;;;;17.03;67.99;102334.81;4995750;28;1906;-50
2020/12/20 05:13:21;;;;;;;;;;;;;;;17.03;68.41;102345.50;4997009;28;908;-51
2020/12/20 05:15:46;;;;;;;;;;;;;;;17.03;67.99;102337.50;4996614;28;1930;-51
2020/12/20 05:18:13;;;;;;;;;;;;;;;17.03;67.35;102329.47;4996920;28;939;-50
2020/12/20 05:20:39;;;;;;;;;;;;;;;17.01;67.86;102331.38;4996757;28;1662;-51
2020/12/20 05:23:05;;;;;;;;;;;;;;;16.99;68.37;102341.28;4996856;28;884;-51
2020/12/20 05:25:31;;;;;;;;;;;;;;;16.97;67.77;102348.53;4996205;28;1712;-51
2020/12/20 05:28:07;;;;;;;;;;;;;;;16.98;67.61;102344.88;4996453;28;903;-51
2020/12/20 05:30:32;;;;;;;;;;;;;;;16.97;67.18;102345.84;4996469;28;877;-51
2020/12/20 05:32:57;;;;;;;;;;;;;;;16.98;67.04;102346.69;4996466;28;1043;-51
2020/12/20 05:35:23;;;;;;;;;;;;;;;16.98;67.38;102347.56;4995948;28;2040;-50
2020/12/20 05:37:48;;;;;;;;;;;;;;;16.97;67.26;102345.84;4996582;28;886;-51
2020/12/20 05:40:27;;;;;;;;;;;;;;;16.98;67.21;102355.56;4996468;28;1755;-51
2020/12/20 05:43:03;;;;;;;;;;;;;;;16.96;67.02;102360.13;4996232;28;841;-51
2020/12/20 05:45:32;;;;;;;;;;;;;;;16.96;67.21;102357.47;4996380;28;861;-51
2020/12/20 05:47:58;;;;;;;;;;;;;;;16.95;67.10;102350.41;4996080;28;859;-50
2020/12/20 05:50:27;;;;;;;;;;;;;;;16.95;67.17;102363.78;4996005;28;956;-51
2020/12/20 05:52:59;;;;;;;;;;;;;;;16.94;68.28;102358.50;4995679;28;1836;-52
2020/12/20 05:55:33;;;;;;;;;;;;;;;16.94;67.58;102367.38;4996135;28;1953;-51
2020/12/20 05:58:06;;;;;;;;;;;;;;;16.92;67.90;102357.72;4995945;28;1003;-51
2020/12/20 06:00:33;;;;;;;;;;;;;;;16.90;67.71;102368.50;4995793;28;1433;-51
2020/12/20 06:02:58;;;;;;;;;;;;;;;16.91;67.22;102370.22;4995786;28;881;-51
2020/12/20 06:05:27;;;;;;;;;;;;;;;16.89;67.26;102372.09;4995699;28;901;-50
2020/12/20 06:07:56;;;;;;;;;;;;;;;16.88;68.13;102368.56;4995614;28;1901;-51
2020/12/20 06:10:25;;;;;;;;;;;;;;;16.90;67.69;102376.50;4995949;28;831;-51
2020/12/20 06:12:52;;;;;;;;;;;;;;;16.86;67.28;102374.94;4995700;28;1860;-51
2020/12/20 06:15:18;;;;;;;;;;;;;;;16.88;67.29;102383.75;4994722;28;1962;-51
2020/12/20 06:17:53;;;;;;;;;;;;;;;16.87;67.25;102377.53;4995449;28;1960;-51
2020/12/20 06:20:26;;;;;;;;;;;;;;;16.85;67.72;102389.25;4995481;28;928;-51
2020/12/20 06:22:52;;;;;;;;;;;;;;;16.86;67.78;102385.63;4995220;28;1859;-51
2020/12/20 06:25:23;;;;;;;;;;;;;;;16.86;67.36;102388.31;4995444;28;789;-51
2020/12/20 06:27:49;;;;;;;;;;;;;;;16.86;67.12;102397.19;4995315;28;849;-51
2020/12/20 06:30:14;;;;;;;;;;;;;;;16.89;67.78;102391.69;4995113;28;1626;-51
2020/12/20 06:32:43;;;;;;;;;;;;;;;16.85;68.29;102391.91;4994917;28;1842;-51
2020/12/20 06:35:26;;;;;;;;;;;;;;;16.83;67.86;102388.47;4995008;28;1089;-51
2020/12/20 06:37:52;;;;;;;;;;;;;;;16.83;68.05;102396.47;4996044;28;1828;-51
2020/12/20 06:40:29;;;;;;;;;;;;;;;16.82;67.79;102392.09;4995912;28;1729;-51
2020/12/20 06:42:54;;;;;;;;;;;;;;;16.81;67.77;102395.66;4995028;28;790;-51
2020/12/20 06:45:20;;;;;;;;;;;;;;;16.78;67.15;102396.69;4995374;28;794;-50
2020/12/20 06:47:47;;;;;;;;;;;;;;;16.82;67.67;102403.63;4995253;28;854;-51
2020/12/20 06:50:13;;;;;;;;;;;;;;;16.83;67.44;102393.81;4994957;28;860;-51
2020/12/20 06:52:45;;;;;;;;;;;;;;;16.84;67.07;102391.06;5008650;28;1681;-50
2020/12/20 06:55:18;;;;;;;;;;;;;;;16.84;67.15;102392.88;5013761;28;1496;-51
2020/12/20 06:58:04;;;;;;;;;;;;;;;16.84;68.23;102409.75;4994859;28;1941;-50
2020/12/20 07:00:49;;;;;;;;;;;;;;;16.80;68.26;102397.47;4994827;28;1284;-51
2020/12/20 07:03:21;;;;;;;;;;;;;;;16.85;67.98;102402.59;4994416;28;1285;-51
2020/12/20 07:05:48;;;;;;;;;;;;;;;16.85;69.01;102405.28;4300113;28;10000833;-51
2020/12/20 07:08:34;;;;;;;;;;;;;;;16.87;68.77;102414.94;4975387;28;1574;-51
2020/12/20 07:11:00;;;;;;;;;;;;;;;16.81;68.98;102409.03;4986706;28;1660;-52
2020/12/20 07:13:34;;;;;;;;;;;;;;;16.82;68.76;102413.47;4986006;28;1736;-51
2020/12/20 07:16:23;;;;;;;;;;;;;;;16.78;68.85;102411.88;4988278;28;1906;-51
2020/12/20 07:18:52;;;;;;;;;;;;;;;16.73;69.77;102419.25;4984817;28;1484;-51
2020/12/20 07:21:17;;;;;;;;;;;;;;;16.74;69.87;102412.97;4977807;28;1611;-52
2020/12/20 07:23:46;;;;;;;;;;;;;;;16.75;70.09;102415.56;4987629;28;1624;-51
2020/12/20 07:26:11;;;;;;;;;;;;;;;16.74;70.92;102402.28;4982107;28;1549;-51
2020/12/20 07:28:36;;;;;;;;;;;;;;;16.79;69.59;102405.56;4988038;28;1469;-52
2020/12/20 07:31:02;;;;;;;;;;;;;;;16.79;69.55;102422.47;4989816;28;1328;-53
2020/12/20 07:33:27;;;;;;;;;;;;;;;16.80;70.07;102420.66;4984259;28;1601;-52
2020/12/20 07:35:52;;;;;;;;;;;;;;;16.75;70.03;102420.03;4988320;28;1910;-51
2020/12/20 07:38:18;;;;;;;;;;;;;;;16.75;70.04;102414.69;4980310;28;1616;-51
2020/12/20 07:40:43;;;;;;;;;;;;;;;16.74;68.77;102396.94;4980180;28;1412;-51
2020/12/20 07:43:09;;;;;;;;;;;;;;;16.78;69.78;102415.41;4988782;28;1536;-51
2020/12/20 07:45:34;;;;;;;;;;;;;;;16.82;69.74;102417.00;4985759;28;1680;-51
2020/12/20 07:48:00;;;;;;;;;;;;;;;16.80;69.06;102418.00;4987156;28;1505;-51
2020/12/20 07:50:25;;;;;;;;;;;;;;;16.77;69.25;102410.13;4981448;28;1263;-51
2020/12/20 07:52:51;;;;;;;;;;;;;;;16.76;69.33;102421.78;4974456;28;1796;-51
2020/12/20 07:55:16;;;;;;;;;;;;;;;16.81;69.99;102430.38;4980368;28;2423;-51
2020/12/20 07:57:45;;;;;;;;;;;;;;;16.70;70.34;102418.47;4990095;28;1929;-51
2020/12/20 08:00:10;;;;;;;;;;;;;;;16.87;70.12;102427.44;4983872;28;2803;-51
2020/12/20 08:02:38;;;;;;;;;;;;;;;16.91;70.19;102421.00;4978537;28;2000;-50
2020/12/20 08:05:07;;;;;;;;;;;;;;;16.96;70.56;102434.13;5017435;28;1793;-49
2020/12/20 08:07:32;;;;;;;;;;;;;;;16.90;68.98;102420.13;4979431;28;2801;-50
2020/12/20 08:09:58;;;;;;;;;;;;;;;16.87;70.33;102424.75;4979013;28;2087;-50
2020/12/20 08:12:25;;;;;;;;;;;;;;;16.92;68.94;102425.38;4979414;28;2492;-49
2020/12/20 08:15:01;;;;;;;;;;;;;;;16.92;69.64;102412.03;4996094;28;1351;-49
2020/12/20 08:17:26;;;;;;;;;;;;;;;17.01;69.09;102424.03;4981634;28;2718;-50
2020/12/20 08:19:55;;;;;;;;;;;;;;;17.01;70.26;102416.88;5013197;28;1839;-49
2020/12/20 08:22:42;;;;;;;;;;;;;;;16.97;69.23;102410.00;4994807;28;1674;-50
2020/12/20 08:25:09;;;;;;;;;;;;;;;17.02;69.61;102421.28;4980792;28;1541;-50
2020/12/20 08:27:39;;;;;;;;;;;;;;;17.03;69.56;102416.78;4985054;28;12723;-50
2020/12/20 08:30:06;;;;;;;;;;;;;;;17.02;69.05;102431.97;4992570;28;1544;-50
2020/12/20 08:32:38;;;;;;;;;;;;;;;17.06;69.37;102422.84;5012903;28;1233;-49
2020/12/20 08:35:17;;;;;;;;;;;;;;;17.07;69.62;102432.59;4980568;28;1719;-50
2020/12/20 08:37:52;;;;;;;;;;;;;;;17.12;69.75;102418.13;4985419;28;1914;-49
2020/12/20 08:40:18;;;;;;;;;;;;;;;17.17;68.30;102438.31;4983641;28;1684;-50
2020/12/20 08:42:46;;;;;;;;;;;;;;;17.20;68.16;102426.59;4987328;28;1697;-50
2020/12/20 08:45:17;;;;;;;;;;;;;;;17.25;68.61;102427.22;5025982;28;1342;-49
2020/12/20 08:47:47;;;;;;;;;;;;;;;17.26;69.07;102439.63;5004434;28;1180;-49
2020/12/20 08:50:27;;;;;;;;;;;;;;;17.32;68.05;102422.38;5001914;28;1338;-53
2020/12/20 08:53:00;;;;;;;;;;;;;;;17.40;68.23;102423.66;4982819;28;1462;-50
2020/12/20 08:55:30;;;;;;;;;;;;;;;17.41;67.86;102429.91;4984622;28;1448;-51
2020/12/20 08:58:05;;;;;;;;;;;;;;;17.56;67.64;102417.47;4989297;28;1957;-51
2020/12/20 09:00:33;;;;;;;;;;;;;;;17.67;67.03;102409.72;4993218;28;1774;-50
2020/12/20 09:03:02;;;;;;;;;;;;;;;17.73;67.58;102409.38;4992188;28;1444;-50
2020/12/20 09:05:29;;;;;;;;;;;;;;;17.75;67.15;102410.16;4992523;28;1376;-50
2020/12/20 09:07:55;;;;;;;;;;;;;;;17.84;67.01;102412.31;4983512;28;1741;-50
2020/12/20 09:10:24;;;;;;;;;;;;;;;17.88;68.02;102419.22;4984969;28;1760;-50
2020/12/20 09:12:55;;;;;;;;;;;;;;;17.91;67.96;102420.88;4987694;28;1506;-50
2020/12/20 09:15:30;;;;;;;;;;;;;;;17.89;68.33;102426.31;4983349;28;1965;-50
2020/12/20 09:17:58;;;;;;;;;;;;;;;17.96;68.15;102417.94;4990634;28;2001;-50
2020/12/20 09:20:29;;;;;;;;;;;;;;;18.08;67.98;102417.22;4989026;28;1659;-50
2020/12/20 09:22:58;;;;;;;;;;;;;;;18.08;69.08;102422.56;4999446;28;1413;-50
2020/12/20 09:25:43;;;;;;;;;;;;;;;17.96;68.23;102412.56;5004079;28;1545;-49
2020/12/20 09:28:10;;;;;;;;;;;;;;;18.10;68.00;102420.66;4998646;28;1794;-50
2020/12/20 09:30:47;;;;;;;;;;;;;;;18.11;68.59;102422.41;4988529;28;2161;-50
2020/12/20 09:33:21;;;;;;;;;;;;;;;18.04;68.41;102418.34;4992452;28;1621;-50
2020/12/20 09:35:52;;;;;;;;;;;;;;;18.08;68.76;102420.78;4984690;28;1988;-50
2020/12/20 09:38:25;;;;;;;;;;;;;;;18.08;69.24;102415.41;4988347;28;1785;-50
2020/12/20 09:40:55;;;;;;;;;;;;;;;18.04;68.79;102403.13;4984314;28;1575;-50
2020/12/20 09:43:21;;;;;;;;;;;;;;;18.08;68.29;102406.50;5021660;28;1374;-50
2020/12/20 09:45:55;;;;;;;;;;;;;;;18.24;68.40;102415.38;4981551;28;2313;-50
2020/12/20 09:48:20;;;;;;;;;;;;;;;18.29;68.13;102402.56;4997226;28;1547;-50
2020/12/20 09:50:45;;;;;;;;;;;;;;;18.37;68.23;102404.78;5020911;28;1484;-49
2020/12/20 09:53:12;;;;;;;;;;;;;;;18.42;67.77;102407.19;4979701;28;1656;-50
2020/12/20 09:55:42;;;;;;;;;;;;;;;18.54;67.94;102417.16;5008403;28;1957;-49
2020/12/20 09:58:09;;;;;;;;;;;;;;;18.48;67.96;102405.03;4993157;28;1693;-50
2020/12/20 10:00:36;;;;;;;;;;;;;;;18.40;68.39;102390.34;4979197;28;1579;-50
2020/12/20 10:03:04;;;;;;;;;;;;;;;18.38;68.62;102400.28;4992180;28;1602;-50
2020/12/20 10:05:35;;;;;;;;;;;;;;;18.45;68.10;102401.66;5018468;28;1541;-50
2020/12/20 10:08:03;;;;;;;;;;;;;;;18.54;67.87;102402.91;5002887;28;1511;-50
2020/12/20 10:10:29;;;;;;;;;;;;;;;18.61;67.86;102402.44;4990655;28;1776;-49
2020/12/20 10:12:57;;;;;;;;;;;;;;;18.63;68.06;102378.25;5010034;28;1888;-50
2020/12/20 10:15:24;;;;;;;;;;;;;;;18.43;68.39;102392.84;4991384;28;1833;-50
2020/12/20 10:17:49;;;;;;;;;;;;;;;18.28;68.39;102395.50;5026652;28;1898;-50
2020/12/20 10:20:14;;;;;;;;;;;;;;;18.22;68.50;102385.16;4996738;28;1813;-50
2020/12/20 10:22:40;;;;;;;;;;;;;;;18.17;69.57;102387.22;4990300;28;1764;-50
2020/12/20 10:25:05;;;;;;;;;;;;;;;18.14;69.28;102381.19;4999817;28;1906;-49
2020/12/20 10:27:30;;;;;;;;;;;;;;;18.19;69.30;102371.09;5012411;28;1546;-50
2020/12/20 10:29:56;;;;;;;;;;;;;;;18.31;68.52;102382.88;4996174;28;1696;-49
2020/12/20 10:32:21;;;;;;;;;;;;;;;18.21;69.10;102370.03;4993570;28;1823;-50
2020/12/20 10:34:46;;;;;;;;;;;;;;;18.20;69.36;102375.47;5018610;28;1521;-50
2020/12/20 10:37:11;;;;;;;;;;;;;;;18.25;68.90;102376.94;4980583;28;1914;-50
2020/12/20 10:39:37;;;;;;;;;;;;;;;18.20;69.39;102368.28;4980065;28;1806;-50
2020/12/20 10:42:02;;;;;;;;;;;;;;;18.18;69.27;102372.88;5009393;28;1697;-50
2020/12/20 10:44:28;;;;;;;;;;;;;;;18.18;69.45;102372.88;5015166;28;1233;-49
2020/12/20 10:46:53;;;;;;;;;;;;;;;18.16;69.39;102368.56;4978209;28;1595;-50
2020/12/20 10:49:19;;;;;;;;;;;;;;;18.13;69.65;102374.97;5016857;28;1584;-50
2020/12/20 10:51:54;;;;;;;;;;;;;;;18.15;69.09;102362.38;4983280;28;1594;-50
2020/12/20 10:54:20;;;;;;;;;;;;;;;18.16;70.11;102368.56;4985049;28;1559;-50
2020/12/20 10:56:45;;;;;;;;;;;;;;;18.15;69.63;102366.88;4982969;28;1955;-49
2020/12/20 10:59:11;;;;;;;;;;;;;;;18.15;69.99;102362.38;4983094;28;1448;-50
2020/12/20 11:01:36;;;;;;;;;;;;;;;18.12;69.32;102362.53;4992827;28;1584;-50
2020/12/20 11:04:02;;;;;;;;;;;;;;;18.12;70.17;102357.19;4989083;28;1581;-50
2020/12/20 11:06:30;;;;;;;;;;;;;;;18.17;69.58;102363.13;4998793;28;1646;-49
2020/12/20 11:08:56;;;;;;;;;;;;;;;18.18;69.39;102354.13;4994338;28;1765;-50
2020/12/20 11:11:32;;;;;;;;;;;;;;;18.18;69.21;102358.63;4994763;28;1508;-50
2020/12/20 11:14:00;;;;;;;;;;;;;;;18.17;69.56;102356.94;4987437;28;1614;-50
2020/12/20 11:16:27;;;;;;;;;;;;;;;18.21;69.10;102362.00;5019749;28;1965;-50
2020/12/20 11:18:54;;;;;;;;;;;;;;;18.21;69.16;102366.50;5008560;28;1768;-50
2020/12/20 11:21:22;;;;;;;;;;;;;;;18.24;69.79;102356.47;4986286;28;1780;-50
2020/12/20 11:23:48;;;;;;;;;;;;;;;18.26;69.13;102361.72;5015380;28;1664;-50
2020/12/20 11:26:15;;;;;;;;;;;;;;;18.26;69.15;102354.56;5024794;28;1566;-50
2020/12/20 11:28:43;;;;;;;;;;;;;;;18.26;69.87;102346.53;4995541;28;2209;-50
2020/12/20 11:31:11;;;;;;;;;;;;;;;18.31;68.90;102356.09;4983508;28;1531;-50
2020/12/20 11:33:37;;;;;;;;;;;;;;;18.32;68.73;102352.44;4993512;28;1671;-50
2020/12/20 11:36:04;;;;;;;;;;;;;;;18.33;68.89;102359.53;5012280;28;1931;-51
2020/12/20 11:38:31;;;;;;;;;;;;;;;18.31;69.21;102345.38;4988275;28;1682;-49
2020/12/20 11:41:00;;;;;;;;;;;;;;;18.32;68.83;102353.31;4989967;28;2006;-50
2020/12/20 11:43:34;;;;;;;;;;;;;;;18.42;69.37;102345.56;4990622;28;1462;-50
2020/12/20 11:45:59;;;;;;;;;;;;;;;18.35;68.95;102346.94;4989382;28;1552;-50
2020/12/20 11:48:26;;;;;;;;;;;;;;;18.35;68.73;102333.53;4998199;28;1815;-50
2020/12/20 11:50:53;;;;;;;;;;;;;;;18.35;69.44;102354.97;4994496;28;1860;-50
2020/12/20 11:53:19;;;;;;;;;;;;;;;18.35;68.67;102346.94;4991368;28;2133;-50
2020/12/20 11:55:45;;;;;;;;;;;;;;;18.50;68.99;102340.63;4995867;28;1886;-50
2020/12/20 11:58:13;;;;;;;;;;;;;;;18.51;68.78;102347.72;5017065;28;1990;-51
2020/12/20 12:00:43;;;;;;;;;;;;;;;18.43;68.95;102340.13;4979146;28;1611;-50
2020/12/20 12:03:12;;;;;;;;;;;;;;;18.38;68.63;102336.00;4981445;28;2262;-50
2020/12/20 12:05:38;;;;;;;;;;;;;;;18.48;68.63;102342.53;4993685;28;1408;-51
2020/12/20 12:08:20;;;;;;;;;;;;;;;18.40;69.64;102344.81;4986036;28;1601;-50
2020/12/20 12:10:46;;;;;;;;;;;;;;;18.35;68.88;102346.94;4988325;28;1651;-50
2020/12/20 12:13:12;;;;;;;;;;;;;;;18.34;69.28;102351.41;4993348;28;1649;-50
2020/12/20 12:15:38;;;;;;;;;;;;;;;18.33;69.67;102335.44;4996276;28;1806;-51
2020/12/20 12:18:04;;;;;;;;;;;;;;;18.50;67.76;102340.63;4984561;28;1890;-50
2020/12/20 12:20:30;;;;;;;;;;;;;;;18.72;67.46;102333.94;5016919;28;1701;-52
2020/12/20 12:22:55;;;;;;;;;;;;;;;18.72;67.82;102336.63;4988064;28;1341;-50
2020/12/20 12:25:21;;;;;;;;;;;;;;;18.78;67.88;102344.28;4981619;28;1514;-51
2020/12/20 12:27:46;;;;;;;;;;;;;;;18.74;68.16;102343.63;4985842;28;2011;-51
2020/12/20 12:30:12;;;;;;;;;;;;;;;18.64;68.63;102342.44;4985115;28;1890;-50
2020/12/20 12:32:38;;;;;;;;;;;;;;;18.62;68.52;102323.81;4983258;28;1492;-51
2020/12/20 12:35:04;;;;;;;;;;;;;;;18.75;67.97;102331.94;5009710;28;1596;-50
2020/12/20 12:37:30;;;;;;;;;;;;;;;18.71;68.13;102335.75;4983834;28;3125;-50
2020/12/20 12:39:56;;;;;;;;;;;;;;;18.78;68.43;102342.47;5012824;28;2697;-50
2020/12/20 12:42:22;;;;;;;;;;;;;;;18.63;69.38;102349.63;4985045;28;1542;-51
2020/12/20 12:45:02;;;;;;;;;;;;;;;18.60;68.65;102348.94;4992940;28;1437;-49
2020/12/20 12:47:28;;;;;;;;;;;;;;;18.65;67.91;102355.75;5000787;28;1843;-50